sensor_id;sensor_type;location;lat;lon;timestamp;P1;durP1;ratioP1;P2;durP2;ratioP2
18653;SDS011;9456;47.824;16.228;2023-09-18T00:00:58;7.30;;;6.80;;
18653;SDS011;9456;47.824;16.228;2023-09-18T00:03:27;7.07;;;6.57;;
18653;SDS011;9456;47.824;16.228;2023-09-18T00:05:56;7.13;;;6.53;;
18653;SDS011;9456;47.824;16.228;2023-09-18T00:08:25;8.33;;;6.53;;
18653;SDS011;9456;47.824;16.228;2023-09-18T00:10:54;6.47;;;5.97;;
18653;SDS011;9456;47.824;16.228;2023-09-18T00:13:23;6.33;;;5.93;;
18653;SDS011;9456;47.824;16.228;2023-09-18T00:15:54;6.47;;;5.90;;
18653;SDS011;9456;47.824;16.228;2023-09-18T00:18:23;6.83;;;6.37;;
18653;SDS011;9456;47.824;16.228;2023-09-18T00:20:52;6.50;;;6.00;;
18653;SDS011;9456;47.824;16.228;2023-09-18T00:23:21;6.60;;;6.20;;
18653;SDS011;9456;47.824;16.228;2023-09-18T00:25:49;7.30;;;6.80;;
18653;SDS011;9456;47.824;16.228;2023-09-18T00:28:19;6.70;;;6.20;;
18653;SDS011;9456;47.824;16.228;2023-09-18T00:30:48;6.70;;;6.20;;
18653;SDS011;9456;47.824;16.228;2023-09-18T00:33:16;6.90;;;6.40;;
18653;SDS011;9456;47.824;16.228;2023-09-18T00:35:46;7.10;;;6.40;;
18653;SDS011;9456;47.824;16.228;2023-09-18T00:38:15;6.20;;;5.60;;
18653;SDS011;9456;47.824;16.228;2023-09-18T00:40:44;6.23;;;5.80;;
18653;SDS011;9456;47.824;16.228;2023-09-18T00:43:13;6.07;;;5.67;;
18653;SDS011;9456;47.824;16.228;2023-09-18T00:45:44;6.03;;;5.63;;
18653;SDS011;9456;47.824;16.228;2023-09-18T00:50:40;6.17;;;5.77;;
18653;SDS011;9456;47.824;16.228;2023-09-18T00:53:09;6.77;;;6.27;;
18653;SDS011;9456;47.824;16.228;2023-09-18T00:55:38;7.40;;;6.80;;
18653;SDS011;9456;47.824;16.228;2023-09-18T00:58:07;6.80;;;6.33;;
18653;SDS011;9456;47.824;16.228;2023-09-18T01:00:35;6.83;;;6.23;;
18653;SDS011;9456;47.824;16.228;2023-09-18T01:03:04;6.73;;;6.07;;
18653;SDS011;9456;47.824;16.228;2023-09-18T01:05:33;6.63;;;6.13;;
18653;SDS011;9456;47.824;16.228;2023-09-18T01:08:03;6.67;;;6.17;;
18653;SDS011;9456;47.824;16.228;2023-09-18T01:10:34;6.40;;;5.90;;
18653;SDS011;9456;47.824;16.228;2023-09-18T01:13:04;6.93;;;6.43;;
18653;SDS011;9456;47.824;16.228;2023-09-18T01:15:35;6.10;;;5.70;;
18653;SDS011;9456;47.824;16.228;2023-09-18T01:18:03;6.53;;;6.03;;
18653;SDS011;9456;47.824;16.228;2023-09-18T01:20:32;6.27;;;5.87;;
18653;SDS011;9456;47.824;16.228;2023-09-18T01:23:01;6.67;;;6.10;;
18653;SDS011;9456;47.824;16.228;2023-09-18T01:25:31;5.83;;;5.43;;
18653;SDS011;9456;47.824;16.228;2023-09-18T01:28:00;5.40;;;5.00;;
18653;SDS011;9456;47.824;16.228;2023-09-18T01:30:29;4.83;;;4.53;;
18653;SDS011;9456;47.824;16.228;2023-09-18T01:32:58;6.00;;;5.60;;
18653;SDS011;9456;47.824;16.228;2023-09-18T01:35:27;5.90;;;5.50;;
18653;SDS011;9456;47.824;16.228;2023-09-18T01:37:56;5.00;;;4.70;;
18653;SDS011;9456;47.824;16.228;2023-09-18T01:40:25;5.23;;;4.83;;
18653;SDS011;9456;47.824;16.228;2023-09-18T01:42:54;4.80;;;4.50;;
18653;SDS011;9456;47.824;16.228;2023-09-18T01:45:23;4.57;;;4.27;;
18653;SDS011;9456;47.824;16.228;2023-09-18T01:47:52;4.70;;;4.33;;
18653;SDS011;9456;47.824;16.228;2023-09-18T01:53:00;4.10;;;3.90;;
18653;SDS011;9456;47.824;16.228;2023-09-18T01:55:29;5.13;;;4.73;;
18653;SDS011;9456;47.824;16.228;2023-09-18T01:57:59;4.57;;;4.27;;
18653;SDS011;9456;47.824;16.228;2023-09-18T02:00:27;5.97;;;4.57;;
18653;SDS011;9456;47.824;16.228;2023-09-18T02:02:56;5.37;;;4.97;;
18653;SDS011;9456;47.824;16.228;2023-09-18T02:05:25;5.27;;;4.93;;
18653;SDS011;9456;47.824;16.228;2023-09-18T02:07:54;5.10;;;4.80;;
18653;SDS011;9456;47.824;16.228;2023-09-18T02:10:23;5.37;;;4.97;;
18653;SDS011;9456;47.824;16.228;2023-09-18T02:12:52;5.10;;;4.80;;
18653;SDS011;9456;47.824;16.228;2023-09-18T02:15:21;5.30;;;4.63;;
18653;SDS011;9456;47.824;16.228;2023-09-18T02:17:50;5.33;;;4.93;;
18653;SDS011;9456;47.824;16.228;2023-09-18T02:20:19;5.40;;;5.00;;
18653;SDS011;9456;47.824;16.228;2023-09-18T02:22:48;5.17;;;4.87;;
18653;SDS011;9456;47.824;16.228;2023-09-18T02:25:17;5.97;;;5.57;;
18653;SDS011;9456;47.824;16.228;2023-09-18T02:27:46;5.77;;;5.27;;
18653;SDS011;9456;47.824;16.228;2023-09-18T02:30:15;6.07;;;5.60;;
18653;SDS011;9456;47.824;16.228;2023-09-18T02:32:44;6.07;;;5.57;;
18653;SDS011;9456;47.824;16.228;2023-09-18T02:38:01;5.63;;;5.23;;
18653;SDS011;9456;47.824;16.228;2023-09-18T02:40:30;6.17;;;5.60;;
18653;SDS011;9456;47.824;16.228;2023-09-18T02:42:59;5.83;;;5.33;;
18653;SDS011;9456;47.824;16.228;2023-09-18T02:45:28;6.47;;;5.87;;
18653;SDS011;9456;47.824;16.228;2023-09-18T02:47:57;6.07;;;5.67;;
18653;SDS011;9456;47.824;16.228;2023-09-18T02:50:26;6.00;;;5.60;;
18653;SDS011;9456;47.824;16.228;2023-09-18T02:52:55;5.57;;;5.17;;
18653;SDS011;9456;47.824;16.228;2023-09-18T02:55:24;5.70;;;5.30;;
18653;SDS011;9456;47.824;16.228;2023-09-18T02:57:53;6.80;;;6.20;;
18653;SDS011;9456;47.824;16.228;2023-09-18T03:00:22;6.03;;;5.63;;
18653;SDS011;9456;47.824;16.228;2023-09-18T03:02:51;5.60;;;5.23;;
18653;SDS011;9456;47.824;16.228;2023-09-18T03:05:20;6.10;;;5.70;;
18653;SDS011;9456;47.824;16.228;2023-09-18T03:07:49;6.17;;;5.67;;
18653;SDS011;9456;47.824;16.228;2023-09-18T03:10:18;5.50;;;5.10;;
18653;SDS011;9456;47.824;16.228;2023-09-18T03:12:48;6.23;;;5.03;;
18653;SDS011;9456;47.824;16.228;2023-09-18T03:15:17;5.57;;;5.17;;
18653;SDS011;9456;47.824;16.228;2023-09-18T03:17:46;5.97;;;5.47;;
18653;SDS011;9456;47.824;16.228;2023-09-18T03:20:15;5.90;;;5.50;;
18653;SDS011;9456;47.824;16.228;2023-09-18T03:22:44;5.90;;;5.50;;
18653;SDS011;9456;47.824;16.228;2023-09-18T03:25:13;5.63;;;5.23;;
18653;SDS011;9456;47.824;16.228;2023-09-18T03:27:42;5.57;;;5.17;;
18653;SDS011;9456;47.824;16.228;2023-09-18T03:30:11;6.13;;;5.60;;
18653;SDS011;9456;47.824;16.228;2023-09-18T03:32:40;5.70;;;5.30;;
18653;SDS011;9456;47.824;16.228;2023-09-18T03:35:09;5.87;;;5.37;;
18653;SDS011;9456;47.824;16.228;2023-09-18T03:37:39;6.50;;;6.00;;
18653;SDS011;9456;47.824;16.228;2023-09-18T03:40:08;6.10;;;5.47;;
18653;SDS011;9456;47.824;16.228;2023-09-18T03:42:38;6.30;;;5.73;;
18653;SDS011;9456;47.824;16.228;2023-09-18T03:45:08;6.30;;;5.80;;
18653;SDS011;9456;47.824;16.228;2023-09-18T03:47:37;5.70;;;5.30;;
18653;SDS011;9456;47.824;16.228;2023-09-18T03:50:07;6.13;;;5.73;;
18653;SDS011;9456;47.824;16.228;2023-09-18T03:52:37;6.53;;;5.97;;
18653;SDS011;9456;47.824;16.228;2023-09-18T03:55:06;7.17;;;5.63;;
18653;SDS011;9456;47.824;16.228;2023-09-18T03:57:36;6.30;;;5.80;;
18653;SDS011;9456;47.824;16.228;2023-09-18T04:00:06;5.83;;;5.30;;
18653;SDS011;9456;47.824;16.228;2023-09-18T04:02:36;6.30;;;5.80;;
18653;SDS011;9456;47.824;16.228;2023-09-18T04:05:05;5.93;;;5.43;;
18653;SDS011;9456;47.824;16.228;2023-09-18T04:07:35;6.87;;;6.10;;
18653;SDS011;9456;47.824;16.228;2023-09-18T04:10:04;5.90;;;5.40;;
18653;SDS011;9456;47.824;16.228;2023-09-18T04:12:33;6.10;;;5.50;;
18653;SDS011;9456;47.824;16.228;2023-09-18T04:15:02;5.30;;;4.80;;
18653;SDS011;9456;47.824;16.228;2023-09-18T04:17:32;5.50;;;5.00;;
18653;SDS011;9456;47.824;16.228;2023-09-18T04:20:01;5.63;;;5.13;;
18653;SDS011;9456;47.824;16.228;2023-09-18T04:22:30;5.37;;;4.97;;
18653;SDS011;9456;47.824;16.228;2023-09-18T04:24:59;5.20;;;4.73;;
18653;SDS011;9456;47.824;16.228;2023-09-18T04:27:28;5.67;;;5.17;;
18653;SDS011;9456;47.824;16.228;2023-09-18T04:29:57;7.20;;;5.40;;
18653;SDS011;9456;47.824;16.228;2023-09-18T04:32:28;6.33;;;5.33;;
18653;SDS011;9456;47.824;16.228;2023-09-18T04:34:57;7.87;;;5.50;;
18653;SDS011;9456;47.824;16.228;2023-09-18T04:37:26;5.43;;;5.03;;
18653;SDS011;9456;47.824;16.228;2023-09-18T04:39:55;5.23;;;4.83;;
18653;SDS011;9456;47.824;16.228;2023-09-18T04:42:24;8.20;;;5.10;;
18653;SDS011;9456;47.824;16.228;2023-09-18T04:44:53;5.80;;;5.40;;
18653;SDS011;9456;47.824;16.228;2023-09-18T04:47:22;6.50;;;5.57;;
18653;SDS011;9456;47.824;16.228;2023-09-18T04:49:51;5.67;;;5.17;;
18653;SDS011;9456;47.824;16.228;2023-09-18T04:52:20;5.50;;;5.10;;
18653;SDS011;9456;47.824;16.228;2023-09-18T04:54:52;5.77;;;5.27;;
18653;SDS011;9456;47.824;16.228;2023-09-18T04:57:28;5.73;;;5.33;;
18653;SDS011;9456;47.824;16.228;2023-09-18T04:59:57;6.40;;;5.23;;
18653;SDS011;9456;47.824;16.228;2023-09-18T05:02:26;5.77;;;4.73;;
18653;SDS011;9456;47.824;16.228;2023-09-18T05:04:56;6.17;;;5.13;;
18653;SDS011;9456;47.824;16.228;2023-09-18T05:07:25;5.00;;;4.60;;
18653;SDS011;9456;47.824;16.228;2023-09-18T05:09:54;7.00;;;5.03;;
18653;SDS011;9456;47.824;16.228;2023-09-18T05:12:23;8.17;;;5.30;;
18653;SDS011;9456;47.824;16.228;2023-09-18T05:14:52;11.37;;;5.00;;
18653;SDS011;9456;47.824;16.228;2023-09-18T05:17:27;7.13;;;4.40;;
18653;SDS011;9456;47.824;16.228;2023-09-18T05:19:51;6.73;;;4.63;;
18653;SDS011;9456;47.824;16.228;2023-09-18T05:22:20;11.17;;;4.80;;
18653;SDS011;9456;47.824;16.228;2023-09-18T05:24:49;9.87;;;4.80;;
18653;SDS011;9456;47.824;16.228;2023-09-18T05:27:18;8.53;;;4.70;;
18653;SDS011;9456;47.824;16.228;2023-09-18T05:29:47;7.63;;;4.50;;
18653;SDS011;9456;47.824;16.228;2023-09-18T05:32:16;6.73;;;4.30;;
18653;SDS011;9456;47.824;16.228;2023-09-18T05:34:45;8.17;;;5.50;;
18653;SDS011;9456;47.824;16.228;2023-09-18T05:37:14;14.87;;;5.20;;
18653;SDS011;9456;47.824;16.228;2023-09-18T05:39:43;10.33;;;5.47;;
18653;SDS011;9456;47.824;16.228;2023-09-18T05:42:11;10.13;;;5.47;;
18653;SDS011;9456;47.824;16.228;2023-09-18T05:44:40;8.57;;;5.90;;
18653;SDS011;9456;47.824;16.228;2023-09-18T05:47:10;9.27;;;5.20;;
18653;SDS011;9456;47.824;16.228;2023-09-18T05:49:39;6.53;;;5.00;;
18653;SDS011;9456;47.824;16.228;2023-09-18T05:52:08;5.73;;;5.03;;
18653;SDS011;9456;47.824;16.228;2023-09-18T05:54:37;12.97;;;5.40;;
18653;SDS011;9456;47.824;16.228;2023-09-18T05:57:06;10.63;;;5.23;;
18653;SDS011;9456;47.824;16.228;2023-09-18T05:59:36;7.40;;;4.60;;
18653;SDS011;9456;47.824;16.228;2023-09-18T06:02:05;6.93;;;4.97;;
18653;SDS011;9456;47.824;16.228;2023-09-18T06:04:34;5.57;;;4.70;;
18653;SDS011;9456;47.824;16.228;2023-09-18T06:07:03;4.70;;;4.30;;
18653;SDS011;9456;47.824;16.228;2023-09-18T06:09:32;5.13;;;4.57;;
18653;SDS011;9456;47.824;16.228;2023-09-18T06:12:01;6.87;;;4.30;;
18653;SDS011;9456;47.824;16.228;2023-09-18T06:14:30;6.03;;;4.10;;
18653;SDS011;9456;47.824;16.228;2023-09-18T06:16:59;7.77;;;4.63;;
18653;SDS011;9456;47.824;16.228;2023-09-18T06:19:28;4.40;;;4.00;;
18653;SDS011;9456;47.824;16.228;2023-09-18T06:21:57;4.57;;;4.20;;
18653;SDS011;9456;47.824;16.228;2023-09-18T06:24:26;7.53;;;4.53;;
18653;SDS011;9456;47.824;16.228;2023-09-18T06:26:55;4.17;;;3.87;;
18653;SDS011;9456;47.824;16.228;2023-09-18T06:29:24;7.07;;;4.70;;
18653;SDS011;9456;47.824;16.228;2023-09-18T06:31:53;6.37;;;4.40;;
18653;SDS011;9456;47.824;16.228;2023-09-18T06:34:22;4.60;;;3.60;;
18653;SDS011;9456;47.824;16.228;2023-09-18T06:36:51;3.90;;;3.60;;
18653;SDS011;9456;47.824;16.228;2023-09-18T06:39:20;6.80;;;3.80;;
18653;SDS011;9456;47.824;16.228;2023-09-18T06:41:49;5.40;;;3.83;;
18653;SDS011;9456;47.824;16.228;2023-09-18T06:44:18;3.97;;;3.67;;
18653;SDS011;9456;47.824;16.228;2023-09-18T06:46:47;3.47;;;3.27;;
18653;SDS011;9456;47.824;16.228;2023-09-18T06:49:15;7.87;;;3.87;;
18653;SDS011;9456;47.824;16.228;2023-09-18T06:51:44;3.57;;;3.27;;
18653;SDS011;9456;47.824;16.228;2023-09-18T06:54:13;5.30;;;3.60;;
18653;SDS011;9456;47.824;16.228;2023-09-18T06:56:42;4.40;;;4.00;;
18653;SDS011;9456;47.824;16.228;2023-09-18T06:59:11;5.63;;;4.10;;
18653;SDS011;9456;47.824;16.228;2023-09-18T07:01:42;9.93;;;4.47;;
18653;SDS011;9456;47.824;16.228;2023-09-18T07:04:11;4.67;;;4.20;;
18653;SDS011;9456;47.824;16.228;2023-09-18T07:06:40;4.80;;;4.03;;
18653;SDS011;9456;47.824;16.228;2023-09-18T07:09:09;4.33;;;3.93;;
18653;SDS011;9456;47.824;16.228;2023-09-18T07:11:38;6.47;;;4.73;;
18653;SDS011;9456;47.824;16.228;2023-09-18T07:14:07;5.20;;;4.73;;
18653;SDS011;9456;47.824;16.228;2023-09-18T07:16:36;7.53;;;4.93;;
18653;SDS011;9456;47.824;16.228;2023-09-18T07:19:05;6.07;;;4.30;;
18653;SDS011;9456;47.824;16.228;2023-09-18T07:21:34;4.53;;;3.70;;
18653;SDS011;9456;47.824;16.228;2023-09-18T07:24:03;2.70;;;2.50;;
18653;SDS011;9456;47.824;16.228;2023-09-18T07:26:32;3.10;;;2.43;;
18653;SDS011;9456;47.824;16.228;2023-09-18T07:29:01;3.27;;;2.33;;
18653;SDS011;9456;47.824;16.228;2023-09-18T07:31:30;4.03;;;2.47;;
18653;SDS011;9456;47.824;16.228;2023-09-18T07:33:59;2.87;;;2.60;;
18653;SDS011;9456;47.824;16.228;2023-09-18T07:36:28;3.00;;;2.67;;
18653;SDS011;9456;47.824;16.228;2023-09-18T07:38:57;3.50;;;2.60;;
18653;SDS011;9456;47.824;16.228;2023-09-18T07:41:26;4.63;;;2.87;;
18653;SDS011;9456;47.824;16.228;2023-09-18T07:43:55;3.30;;;2.90;;
18653;SDS011;9456;47.824;16.228;2023-09-18T07:46:24;3.50;;;2.60;;
18653;SDS011;9456;47.824;16.228;2023-09-18T07:48:53;4.13;;;2.80;;
18653;SDS011;9456;47.824;16.228;2023-09-18T07:51:22;4.67;;;2.60;;
18653;SDS011;9456;47.824;16.228;2023-09-18T07:53:51;4.73;;;2.37;;
18653;SDS011;9456;47.824;16.228;2023-09-18T07:56:20;3.47;;;2.80;;
18653;SDS011;9456;47.824;16.228;2023-09-18T07:58:49;8.00;;;2.70;;
18653;SDS011;9456;47.824;16.228;2023-09-18T08:01:18;3.00;;;2.67;;
18653;SDS011;9456;47.824;16.228;2023-09-18T08:03:49;4.53;;;2.47;;
18653;SDS011;9456;47.824;16.228;2023-09-18T08:06:18;3.67;;;2.67;;
18653;SDS011;9456;47.824;16.228;2023-09-18T08:08:47;4.90;;;2.53;;
18653;SDS011;9456;47.824;16.228;2023-09-18T08:11:16;3.23;;;2.60;;
18653;SDS011;9456;47.824;16.228;2023-09-18T08:13:45;2.50;;;2.30;;
18653;SDS011;9456;47.824;16.228;2023-09-18T08:16:14;2.93;;;2.57;;
18653;SDS011;9456;47.824;16.228;2023-09-18T08:18:43;2.80;;;2.60;;
18653;SDS011;9456;47.824;16.228;2023-09-18T08:21:12;4.43;;;2.67;;
18653;SDS011;9456;47.824;16.228;2023-09-18T08:23:41;2.43;;;2.30;;
18653;SDS011;9456;47.824;16.228;2023-09-18T08:26:10;4.40;;;2.83;;
18653;SDS011;9456;47.824;16.228;2023-09-18T08:28:38;4.13;;;2.40;;
18653;SDS011;9456;47.824;16.228;2023-09-18T08:31:09;3.47;;;2.60;;
18653;SDS011;9456;47.824;16.228;2023-09-18T08:33:38;2.80;;;2.60;;
18653;SDS011;9456;47.824;16.228;2023-09-18T08:36:07;3.43;;;2.57;;
18653;SDS011;9456;47.824;16.228;2023-09-18T08:38:36;6.37;;;2.23;;
18653;SDS011;9456;47.824;16.228;2023-09-18T08:41:05;2.80;;;2.40;;
18653;SDS011;9456;47.824;16.228;2023-09-18T08:43:34;2.70;;;2.50;;
18653;SDS011;9456;47.824;16.228;2023-09-18T08:46:03;5.47;;;2.77;;
18653;SDS011;9456;47.824;16.228;2023-09-18T08:48:31;4.20;;;2.60;;
18653;SDS011;9456;47.824;16.228;2023-09-18T08:51:02;5.03;;;2.27;;
18653;SDS011;9456;47.824;16.228;2023-09-18T08:53:31;4.90;;;2.33;;
18653;SDS011;9456;47.824;16.228;2023-09-18T08:56:00;2.90;;;2.20;;
18653;SDS011;9456;47.824;16.228;2023-09-18T08:58:29;3.63;;;2.20;;
18653;SDS011;9456;47.824;16.228;2023-09-18T09:00:58;2.83;;;2.50;;
18653;SDS011;9456;47.824;16.228;2023-09-18T09:03:27;7.63;;;2.57;;
18653;SDS011;9456;47.824;16.228;2023-09-18T09:06:04;3.03;;;2.70;;
18653;SDS011;9456;47.824;16.228;2023-09-18T09:08:33;3.73;;;2.77;;
18653;SDS011;9456;47.824;16.228;2023-09-18T09:11:02;3.63;;;2.90;;
18653;SDS011;9456;47.824;16.228;2023-09-18T09:13:30;6.57;;;2.93;;
18653;SDS011;9456;47.824;16.228;2023-09-18T09:15:59;2.60;;;2.37;;
18653;SDS011;9456;47.824;16.228;2023-09-18T09:18:29;5.53;;;2.50;;
18653;SDS011;9456;47.824;16.228;2023-09-18T09:20:58;3.70;;;2.53;;
18653;SDS011;9456;47.824;16.228;2023-09-18T09:23:27;5.83;;;2.80;;
18653;SDS011;9456;47.824;16.228;2023-09-18T09:26:11;2.70;;;2.33;;
18653;SDS011;9456;47.824;16.228;2023-09-18T09:28:31;4.47;;;2.80;;
18653;SDS011;9456;47.824;16.228;2023-09-18T09:31:03;4.70;;;2.37;;
18653;SDS011;9456;47.824;16.228;2023-09-18T09:33:32;2.53;;;2.27;;
18653;SDS011;9456;47.824;16.228;2023-09-18T09:36:04;4.03;;;2.50;;
18653;SDS011;9456;47.824;16.228;2023-09-18T09:38:31;2.87;;;2.40;;
18653;SDS011;9456;47.824;16.228;2023-09-18T09:40:59;2.70;;;2.10;;
18653;SDS011;9456;47.824;16.228;2023-09-18T09:43:28;2.73;;;2.20;;
18653;SDS011;9456;47.824;16.228;2023-09-18T09:45:57;3.57;;;2.30;;
18653;SDS011;9456;47.824;16.228;2023-09-18T09:48:26;5.60;;;2.70;;
18653;SDS011;9456;47.824;16.228;2023-09-18T09:50:58;3.43;;;2.30;;
18653;SDS011;9456;47.824;16.228;2023-09-18T09:56:15;4.40;;;2.63;;
18653;SDS011;9456;47.824;16.228;2023-09-18T09:58:44;3.77;;;2.40;;
18653;SDS011;9456;47.824;16.228;2023-09-18T10:01:13;3.23;;;2.27;;
18653;SDS011;9456;47.824;16.228;2023-09-18T10:03:42;3.23;;;2.30;;
18653;SDS011;9456;47.824;16.228;2023-09-18T10:06:11;3.97;;;2.70;;
18653;SDS011;9456;47.824;16.228;2023-09-18T10:08:40;3.93;;;2.67;;
18653;SDS011;9456;47.824;16.228;2023-09-18T10:11:09;4.70;;;2.53;;
18653;SDS011;9456;47.824;16.228;2023-09-18T10:13:40;5.23;;;2.37;;
18653;SDS011;9456;47.824;16.228;2023-09-18T10:16:09;3.93;;;2.80;;
18653;SDS011;9456;47.824;16.228;2023-09-18T10:18:39;3.03;;;2.13;;
18653;SDS011;9456;47.824;16.228;2023-09-18T10:21:09;3.37;;;2.37;;
18653;SDS011;9456;47.824;16.228;2023-09-18T10:23:46;2.90;;;2.57;;
18653;SDS011;9456;47.824;16.228;2023-09-18T10:26:10;6.10;;;2.73;;
18653;SDS011;9456;47.824;16.228;2023-09-18T10:28:39;3.80;;;2.73;;
18653;SDS011;9456;47.824;16.228;2023-09-18T10:31:08;2.83;;;2.57;;
18653;SDS011;9456;47.824;16.228;2023-09-18T10:33:37;4.30;;;2.63;;
18653;SDS011;9456;47.824;16.228;2023-09-18T10:36:06;2.73;;;2.53;;
18653;SDS011;9456;47.824;16.228;2023-09-18T10:38:35;2.87;;;2.60;;
18653;SDS011;9456;47.824;16.228;2023-09-18T10:41:04;2.63;;;2.43;;
18653;SDS011;9456;47.824;16.228;2023-09-18T10:43:33;4.43;;;3.07;;
18653;SDS011;9456;47.824;16.228;2023-09-18T10:46:02;3.03;;;2.73;;
18653;SDS011;9456;47.824;16.228;2023-09-18T10:48:32;3.40;;;3.00;;
18653;SDS011;9456;47.824;16.228;2023-09-18T10:51:01;2.90;;;2.60;;
18653;SDS011;9456;47.824;16.228;2023-09-18T10:53:30;2.70;;;2.50;;
18653;SDS011;9456;47.824;16.228;2023-09-18T10:55:59;3.03;;;2.73;;
18653;SDS011;9456;47.824;16.228;2023-09-18T10:58:30;3.17;;;2.77;;
18653;SDS011;9456;47.824;16.228;2023-09-18T11:01:00;3.23;;;2.57;;
18653;SDS011;9456;47.824;16.228;2023-09-18T11:03:29;3.67;;;2.77;;
18653;SDS011;9456;47.824;16.228;2023-09-18T11:06:04;2.70;;;2.47;;
18653;SDS011;9456;47.824;16.228;2023-09-18T11:08:34;3.77;;;2.10;;
18653;SDS011;9456;47.824;16.228;2023-09-18T11:11:07;4.60;;;2.60;;
18653;SDS011;9456;47.824;16.228;2023-09-18T11:13:38;2.50;;;2.20;;
18653;SDS011;9456;47.824;16.228;2023-09-18T11:16:17;2.70;;;2.10;;
18653;SDS011;9456;47.824;16.228;2023-09-18T11:18:51;3.30;;;2.70;;
18653;SDS011;9456;47.824;16.228;2023-09-18T11:21:24;2.27;;;2.07;;
18653;SDS011;9456;47.824;16.228;2023-09-18T11:23:59;3.37;;;2.37;;
18653;SDS011;9456;47.824;16.228;2023-09-18T11:26:31;3.33;;;2.43;;
18653;SDS011;9456;47.824;16.228;2023-09-18T11:29:00;2.30;;;2.10;;
18653;SDS011;9456;47.824;16.228;2023-09-18T11:31:43;3.60;;;2.50;;
18653;SDS011;9456;47.824;16.228;2023-09-18T11:34:13;4.97;;;2.40;;
18653;SDS011;9456;47.824;16.228;2023-09-18T11:36:42;3.00;;;2.50;;
18653;SDS011;9456;47.824;16.228;2023-09-18T11:39:11;2.50;;;2.30;;
18653;SDS011;9456;47.824;16.228;2023-09-18T11:41:40;3.20;;;2.50;;
18653;SDS011;9456;47.824;16.228;2023-09-18T11:47:08;3.00;;;2.70;;
18653;SDS011;9456;47.824;16.228;2023-09-18T11:49:41;2.20;;;2.10;;
18653;SDS011;9456;47.824;16.228;2023-09-18T11:52:10;2.93;;;2.30;;
18653;SDS011;9456;47.824;16.228;2023-09-18T11:54:40;3.03;;;2.70;;
18653;SDS011;9456;47.824;16.228;2023-09-18T11:57:09;5.00;;;2.80;;
18653;SDS011;9456;47.824;16.228;2023-09-18T11:59:39;3.27;;;2.90;;
18653;SDS011;9456;47.824;16.228;2023-09-18T12:02:07;3.70;;;2.63;;
18653;SDS011;9456;47.824;16.228;2023-09-18T12:04:36;4.43;;;2.67;;
18653;SDS011;9456;47.824;16.228;2023-09-18T12:07:05;6.73;;;3.17;;
18653;SDS011;9456;47.824;16.228;2023-09-18T12:09:34;2.90;;;2.70;;
18653;SDS011;9456;47.824;16.228;2023-09-18T12:14:51;5.20;;;2.67;;
18653;SDS011;9456;47.824;16.228;2023-09-18T12:17:20;5.17;;;2.90;;
18653;SDS011;9456;47.824;16.228;2023-09-18T12:19:53;3.47;;;2.63;;
18653;SDS011;9456;47.824;16.228;2023-09-18T12:22:25;4.67;;;2.60;;
18653;SDS011;9456;47.824;16.228;2023-09-18T12:24:55;3.17;;;2.87;;
18653;SDS011;9456;47.824;16.228;2023-09-18T12:27:36;3.53;;;2.90;;
18653;SDS011;9456;47.824;16.228;2023-09-18T12:30:06;2.77;;;2.57;;
18653;SDS011;9456;47.824;16.228;2023-09-18T12:32:36;4.27;;;2.80;;
18653;SDS011;9456;47.824;16.228;2023-09-18T12:35:06;2.80;;;2.57;;
18653;SDS011;9456;47.824;16.228;2023-09-18T12:37:38;2.80;;;2.60;;
18653;SDS011;9456;47.824;16.228;2023-09-18T12:40:10;5.17;;;3.20;;
18653;SDS011;9456;47.824;16.228;2023-09-18T12:42:48;2.47;;;2.27;;
18653;SDS011;9456;47.824;16.228;2023-09-18T12:45:17;5.90;;;2.80;;
18653;SDS011;9456;47.824;16.228;2023-09-18T12:47:47;3.17;;;2.67;;
18653;SDS011;9456;47.824;16.228;2023-09-18T12:50:15;4.63;;;2.50;;
18653;SDS011;9456;47.824;16.228;2023-09-18T12:52:44;2.67;;;2.50;;
18653;SDS011;9456;47.824;16.228;2023-09-18T12:55:23;2.90;;;2.67;;
18653;SDS011;9456;47.824;16.228;2023-09-18T12:57:52;3.70;;;2.70;;
18653;SDS011;9456;47.824;16.228;2023-09-18T13:00:21;6.20;;;2.77;;
18653;SDS011;9456;47.824;16.228;2023-09-18T13:02:50;2.90;;;2.53;;
18653;SDS011;9456;47.824;16.228;2023-09-18T13:05:20;2.90;;;2.70;;
18653;SDS011;9456;47.824;16.228;2023-09-18T13:07:49;3.90;;;3.00;;
18653;SDS011;9456;47.824;16.228;2023-09-18T13:10:18;4.53;;;2.83;;
18653;SDS011;9456;47.824;16.228;2023-09-18T13:12:47;4.37;;;2.30;;
18653;SDS011;9456;47.824;16.228;2023-09-18T13:15:24;5.07;;;3.17;;
18653;SDS011;9456;47.824;16.228;2023-09-18T13:17:54;3.13;;;2.87;;
18653;SDS011;9456;47.824;16.228;2023-09-18T13:20:24;5.60;;;2.97;;
18653;SDS011;9456;47.824;16.228;2023-09-18T13:22:54;3.90;;;3.20;;
18653;SDS011;9456;47.824;16.228;2023-09-18T13:25:22;3.43;;;3.13;;
18653;SDS011;9456;47.824;16.228;2023-09-18T13:27:51;3.73;;;2.73;;
18653;SDS011;9456;47.824;16.228;2023-09-18T13:30:19;5.60;;;2.97;;
18653;SDS011;9456;47.824;16.228;2023-09-18T13:32:48;3.73;;;2.93;;
18653;SDS011;9456;47.824;16.228;2023-09-18T13:35:17;6.37;;;3.10;;
18653;SDS011;9456;47.824;16.228;2023-09-18T13:37:46;4.57;;;2.80;;
18653;SDS011;9456;47.824;16.228;2023-09-18T13:40:15;5.37;;;2.90;;
18653;SDS011;9456;47.824;16.228;2023-09-18T13:42:44;5.90;;;3.10;;
18653;SDS011;9456;47.824;16.228;2023-09-18T13:45:13;3.13;;;2.70;;
18653;SDS011;9456;47.824;16.228;2023-09-18T13:47:42;5.27;;;3.37;;
18653;SDS011;9456;47.824;16.228;2023-09-18T13:50:11;4.60;;;3.13;;
18653;SDS011;9456;47.824;16.228;2023-09-18T13:52:40;5.97;;;2.60;;
18653;SDS011;9456;47.824;16.228;2023-09-18T13:55:09;6.63;;;3.10;;
18653;SDS011;9456;47.824;16.228;2023-09-18T13:57:38;2.80;;;2.60;;
18653;SDS011;9456;47.824;16.228;2023-09-18T14:00:07;4.03;;;2.90;;
18653;SDS011;9456;47.824;16.228;2023-09-18T14:02:37;5.87;;;3.57;;
18653;SDS011;9456;47.824;16.228;2023-09-18T14:05:07;3.30;;;3.03;;
18653;SDS011;9456;47.824;16.228;2023-09-18T14:07:36;5.40;;;3.20;;
18653;SDS011;9456;47.824;16.228;2023-09-18T14:10:07;3.37;;;3.07;;
18653;SDS011;9456;47.824;16.228;2023-09-18T14:12:37;8.17;;;3.10;;
18653;SDS011;9456;47.824;16.228;2023-09-18T14:15:07;3.10;;;2.80;;
18653;SDS011;9456;47.824;16.228;2023-09-18T14:17:43;3.50;;;3.20;;
18653;SDS011;9456;47.824;16.228;2023-09-18T14:20:12;6.43;;;3.50;;
18653;SDS011;9456;47.824;16.228;2023-09-18T14:22:41;5.77;;;3.37;;
18653;SDS011;9456;47.824;16.228;2023-09-18T14:25:09;8.53;;;3.50;;
18653;SDS011;9456;47.824;16.228;2023-09-18T14:27:39;3.70;;;3.40;;
18653;SDS011;9456;47.824;16.228;2023-09-18T14:30:08;5.03;;;3.87;;
18653;SDS011;9456;47.824;16.228;2023-09-18T14:32:38;4.63;;;3.40;;
18653;SDS011;9456;47.824;16.228;2023-09-18T14:35:07;6.00;;;3.33;;
18653;SDS011;9456;47.824;16.228;2023-09-18T14:37:37;6.43;;;3.33;;
18653;SDS011;9456;47.824;16.228;2023-09-18T14:40:07;5.97;;;3.43;;
18653;SDS011;9456;47.824;16.228;2023-09-18T14:42:36;4.73;;;3.50;;
18653;SDS011;9456;47.824;16.228;2023-09-18T14:45:05;4.33;;;3.23;;
18653;SDS011;9456;47.824;16.228;2023-09-18T14:47:35;4.70;;;3.40;;
18653;SDS011;9456;47.824;16.228;2023-09-18T14:50:05;6.00;;;3.53;;
18653;SDS011;9456;47.824;16.228;2023-09-18T14:52:35;6.23;;;3.50;;
18653;SDS011;9456;47.824;16.228;2023-09-18T14:55:04;7.57;;;3.77;;
18653;SDS011;9456;47.824;16.228;2023-09-18T14:57:34;7.17;;;3.97;;
18653;SDS011;9456;47.824;16.228;2023-09-18T15:00:03;6.33;;;3.50;;
18653;SDS011;9456;47.824;16.228;2023-09-18T15:02:33;7.73;;;3.60;;
18653;SDS011;9456;47.824;16.228;2023-09-18T15:05:02;5.83;;;3.63;;
18653;SDS011;9456;47.824;16.228;2023-09-18T15:07:32;6.83;;;3.30;;
18653;SDS011;9456;47.824;16.228;2023-09-18T15:10:01;4.47;;;3.23;;
18653;SDS011;9456;47.824;16.228;2023-09-18T15:12:30;6.37;;;3.90;;
18653;SDS011;9456;47.824;16.228;2023-09-18T15:14:59;5.60;;;3.60;;
18653;SDS011;9456;47.824;16.228;2023-09-18T15:17:28;7.33;;;3.70;;